createdAt,value
2018-12-29T00:03:21.803Z,99721.27
2018-12-29T00:08:26.886Z,99727.47
2018-12-29T00:13:32.248Z,99732.25
2018-12-29T00:18:38.237Z,99738.23
2018-12-29T00:23:43.324Z,99734.55
2018-12-29T00:28:48.405Z,99739.08
2018-12-29T00:33:53.774Z,99742.43
2018-12-29T00:38:59.594Z,99742.33
2018-12-29T00:44:05.006Z,99743.55
2018-12-29T00:49:10.254Z,99740.59
2018-12-29T00:54:15.753Z,99748.67
2018-12-29T00:59:20.762Z,99730.97
2018-12-29T01:04:25.778Z,99727.19
2018-12-29T01:09:30.973Z,99722.89
2018-12-29T01:14:36.394Z,99725.70
2018-12-29T01:19:41.573Z,99735.32
2018-12-29T01:24:48.310Z,99732.25
2018-12-29T01:29:53.738Z,99725.33
2018-12-29T01:34:59.134Z,99711.95
2018-12-29T01:40:04.396Z,99699.29
2018-12-29T01:45:09.476Z,99700.59
2018-12-29T01:50:14.636Z,99707.51
2018-12-29T01:55:19.663Z,99704.79
2018-12-29T02:00:24.780Z,99701.25
2018-12-29T02:05:29.945Z,99699.75
2018-12-29T02:10:35.434Z,99694.28
2018-12-29T02:15:40.582Z,99683.38
2018-12-29T02:20:45.934Z,99674.52
2018-12-29T02:25:51.885Z,99685.52
2018-12-29T02:30:57.293Z,99681.31
2018-12-29T02:36:02.367Z,99684.23
2018-12-29T02:41:08.470Z,99683.15
2018-12-29T02:46:13.471Z,99679.22
2018-12-29T02:51:18.831Z,99676.91
2018-12-29T02:56:24.654Z,99678.38
2018-12-29T03:01:29.856Z,99668.86
2018-12-29T03:06:35.166Z,99674.16
2018-12-29T03:11:40.471Z,99670.51
2018-12-29T03:16:45.717Z,99667.19
2018-12-29T03:21:51.619Z,99664.41
2018-12-29T03:26:56.706Z,99668.11
2018-12-29T03:32:02.216Z,99661.25
2018-12-29T03:37:07.386Z,99651.56
2018-12-29T03:42:12.471Z,99641.25
2018-12-29T03:47:17.862Z,99631.50
2018-12-29T03:52:22.978Z,99632.17
2018-12-29T03:57:28.564Z,99636.88
2018-12-29T04:02:33.742Z,99637.05
2018-12-29T04:07:38.834Z,99637.41
2018-12-29T04:12:47.369Z,99638.97
2018-12-29T04:17:52.428Z,99643.34
2018-12-29T04:22:57.979Z,99635.05
2018-12-29T04:28:03.175Z,99637.94
2018-12-29T04:33:08.763Z,99631.84
2018-12-29T04:38:14.357Z,99629.58
2018-12-29T04:43:19.843Z,99638.33
2018-12-29T04:48:25.379Z,99645.74
2018-12-29T04:53:31.050Z,99648.87
2018-12-29T04:58:36.567Z,99652.88
2018-12-29T05:03:42.098Z,99658.20
2018-12-29T05:08:47.281Z,99658.66
2018-12-29T05:13:53.494Z,99665.71
2018-12-29T05:18:58.741Z,99661.86
2018-12-29T05:24:04.029Z,99668.66
2018-12-29T05:29:09.853Z,99673.41
2018-12-29T05:34:15.484Z,99678.97
2018-12-29T05:39:21.095Z,99664.82
2018-12-29T05:44:26.273Z,99679.58
2018-12-29T05:49:31.514Z,99688.23
2018-12-29T05:54:36.749Z,99686.91
2018-12-29T05:59:42.479Z,99693.36
2018-12-29T06:04:47.706Z,99699.30
2018-12-29T06:09:52.915Z,99690.00
2018-12-29T06:14:58.381Z,99698.19
2018-12-29T06:20:03.609Z,99699.91
2018-12-29T06:25:08.794Z,99703.98
2018-12-29T06:30:14.066Z,99703.64
2018-12-29T06:35:19.287Z,99709.21
2018-12-29T06:40:25.099Z,99706.41
2018-12-29T06:45:30.294Z,99711.11
2018-12-29T06:50:36.011Z,99713.27
2018-12-29T06:55:41.185Z,99716.63
2018-12-29T07:00:46.467Z,99713.07
2018-12-29T07:05:51.667Z,99720.72
2018-12-29T07:10:57.233Z,99726.75
2018-12-29T07:16:02.438Z,99726.41
2018-12-29T07:21:07.618Z,99726.05
2018-12-29T07:26:12.809Z,99731.28
2018-12-29T07:31:18.458Z,99733.09
2018-12-29T07:36:23.646Z,99735.57
2018-12-29T07:41:29.134Z,99737.45
2018-12-29T07:46:34.954Z,99731.28
2018-12-29T07:51:40.969Z,99742.07
2018-12-29T07:56:46.181Z,99744.82
2018-12-29T08:01:51.458Z,99741.61
2018-12-29T08:06:57.148Z,99744.31
2018-12-29T08:12:02.356Z,99741.56
2018-12-29T08:17:07.921Z,99745.12
2018-12-29T08:22:13.217Z,99748.44
2018-12-29T08:27:18.701Z,99746.16
2018-12-29T08:32:24.747Z,99749.14
2018-12-29T08:37:30.352Z,99737.57
2018-12-29T08:42:35.975Z,99738.50
2018-12-29T08:47:41.231Z,99751.34
2018-12-29T08:52:46.738Z,99753.83
2018-12-29T08:57:52.411Z,99755.00
2018-12-29T09:02:58.392Z,99751.17
2018-12-29T09:08:03.582Z,99748.31
2018-12-29T09:13:08.757Z,99751.64
2018-12-29T09:18:13.982Z,99761.12
2018-12-29T09:23:19.984Z,99759.58
2018-12-29T09:28:25.187Z,99768.38
2018-12-29T09:33:30.485Z,99770.05
2018-12-29T09:38:35.975Z,99769.91
2018-12-29T09:43:41.538Z,99776.08
2018-12-29T09:48:46.863Z,99777.82
2018-12-29T09:53:52.116Z,99772.11
2018-12-29T09:58:57.315Z,99763.52
2018-12-29T10:04:02.844Z,99758.98
2018-12-29T10:09:08.504Z,99752.61
2018-12-29T10:14:14.885Z,99741.29
2018-12-29T10:19:20.802Z,99737.78
2018-12-29T10:24:27.028Z,99727.15
2018-12-29T10:29:32.233Z,99716.70
2018-12-29T10:34:37.454Z,99714.30
2018-12-29T10:39:43.043Z,99708.03
2018-12-29T10:44:48.685Z,99705.09
2018-12-29T10:49:53.944Z,99697.87
2018-12-29T10:54:59.278Z,99693.77
2018-12-29T11:00:07.103Z,99685.28
2018-12-29T11:05:12.390Z,99675.67
2018-12-29T11:10:17.789Z,99676.59
2018-12-29T11:15:23.928Z,99672.59
2018-12-29T11:20:29.114Z,99661.91
2018-12-29T11:25:34.903Z,99649.35
2018-12-29T11:30:40.223Z,99639.30
2018-12-29T11:35:46.065Z,99630.37
2018-12-29T11:40:51.301Z,99627.20
2018-12-29T11:45:56.533Z,99613.50
2018-12-29T11:51:01.924Z,99604.43
2018-12-29T11:56:07.569Z,99594.32
2018-12-29T12:01:12.833Z,99592.80
2018-12-29T12:06:18.772Z,99592.70
2018-12-29T12:11:24.552Z,99588.13
2018-12-29T12:16:30.132Z,99578.22
2018-12-29T12:21:35.379Z,99560.20
2018-12-29T12:26:41.248Z,99566.98
2018-12-29T12:31:46.603Z,99551.23
2018-12-29T12:36:52.495Z,99526.50
2018-12-29T12:41:57.675Z,99531.64
2018-12-29T12:47:03.493Z,99537.50
2018-12-29T12:52:09.269Z,99543.17
2018-12-29T12:57:14.464Z,99539.53
2018-12-29T13:02:20.230Z,99530.75
2018-12-29T13:07:25.801Z,99522.63
2018-12-29T13:12:31.415Z,99509.53
2018-12-29T13:17:37.289Z,99503.77
2018-12-29T13:22:42.987Z,99501.66
2018-12-29T13:27:48.883Z,99499.39
2018-12-29T13:32:54.694Z,99507.95
2018-12-29T13:38:00.482Z,99507.11
2018-12-29T13:43:06.457Z,99508.59
2018-12-29T13:48:11.966Z,99511.21
2018-12-29T13:53:17.326Z,99500.38
2018-12-29T13:58:22.896Z,99504.84
2018-12-29T14:03:28.521Z,99497.44
2018-12-29T14:08:34.477Z,99508.11
2018-12-29T14:13:40.011Z,99514.48
2018-12-29T14:18:46.731Z,99515.27
2018-12-29T14:23:52.220Z,99516.73
2018-12-29T14:28:57.642Z,99501.78
2018-12-29T14:34:02.984Z,99497.04
2018-12-29T14:39:11.126Z,99492.38
2018-12-29T14:44:16.443Z,99488.40
2018-12-29T14:49:21.845Z,99506.59
2018-12-29T14:54:27.098Z,99491.94
2018-12-29T14:59:32.611Z,99487.28
2018-12-29T15:04:38.508Z,99486.92
2018-12-29T15:09:43.795Z,99469.49
2018-12-29T15:14:49.209Z,99488.47
2018-12-29T15:19:55.243Z,99484.14
2018-12-29T15:25:00.875Z,99454.77
2018-12-29T15:30:06.742Z,99449.04
2018-12-29T15:35:13.463Z,99463.88
2018-12-29T15:40:19.634Z,99451.30
2018-12-29T15:45:25.423Z,99439.67
2018-12-29T15:50:30.596Z,99436.73
2018-12-29T15:55:36.616Z,99416.69
2018-12-29T16:00:42.435Z,99414.97
2018-12-29T16:05:48.714Z,99404.02
2018-12-29T16:10:54.131Z,99419.00
2018-12-29T16:16:01.227Z,99404.63
2018-12-29T16:21:07.196Z,99393.98
2018-12-29T16:26:23.506Z,99396.15
2018-12-29T16:31:20.253Z,99380.80
2018-12-29T16:36:25.448Z,99363.48
2018-12-29T16:41:31.044Z,99371.73
2018-12-29T16:46:36.871Z,99364.31
2018-12-29T16:51:42.058Z,99351.84
2018-12-29T16:56:47.237Z,99322.91
2018-12-29T17:01:52.410Z,99308.89
2018-12-29T17:06:57.985Z,99296.08
2018-12-29T17:12:04.009Z,99300.30
2018-12-29T17:17:09.804Z,99293.39
2018-12-29T17:22:15.254Z,99304.95
2018-12-29T17:27:20.425Z,99296.24
2018-12-29T17:32:26.115Z,99327.28
2018-12-29T17:37:31.960Z,99341.96
2018-12-29T17:42:37.235Z,99370.67
2018-12-29T17:47:42.951Z,99351.67
2018-12-29T17:52:48.477Z,99365.44
2018-12-29T17:57:54.354Z,99369.83
2018-12-29T18:02:59.859Z,99384.37
2018-12-29T18:08:05.337Z,99386.91
2018-12-29T18:13:10.754Z,99383.68
2018-12-29T18:18:15.970Z,99360.20
2018-12-29T18:23:21.613Z,99338.44
2018-12-29T18:28:26.791Z,99344.77
2018-12-29T18:33:37.233Z,99328.88
2018-12-29T18:38:39.294Z,99316.75
2018-12-29T18:43:46.259Z,99320.67
2018-12-29T18:48:51.816Z,99314.06
2018-12-29T18:53:57.447Z,99277.59
2018-12-29T18:59:03.051Z,99210.17
2018-12-29T19:04:09.837Z,99258.81
2018-12-29T19:09:15.972Z,99225.84
2018-12-29T19:14:21.638Z,99228.39
2018-12-29T19:19:27.209Z,99219.02
2018-12-29T19:24:32.481Z,99206.92
2018-12-29T19:29:37.668Z,99196.06
2018-12-29T19:34:43.884Z,99186.62
2018-12-29T19:39:50.576Z,99178.52
2018-12-29T19:44:56.084Z,99138.94
2018-12-29T19:50:02.120Z,99143.72
2018-12-29T19:55:07.305Z,99116.86
2018-12-29T20:00:13.148Z,99132.87
2018-12-29T20:05:18.732Z,99102.99
2018-12-29T20:10:24.233Z,99108.84
2018-12-29T20:15:29.403Z,99069.13
2018-12-29T20:20:34.984Z,99062.09
2018-12-29T20:25:40.257Z,99066.16
2018-12-29T20:30:45.882Z,99056.40
2018-12-29T20:35:52.301Z,99029.98
2018-12-29T20:40:57.489Z,99017.13
2018-12-29T20:46:03.017Z,99012.50
2018-12-29T20:51:09.493Z,98996.23
2018-12-29T20:56:15.371Z,98977.80
2018-12-29T21:01:21.544Z,98961.39
2018-12-29T21:06:27.326Z,98966.98
2018-12-29T21:11:32.547Z,98971.42
2018-12-29T21:16:37.759Z,98960.54
2018-12-29T21:21:42.995Z,98952.91
2018-12-29T21:26:48.225Z,98943.97
2018-12-29T21:31:53.508Z,98937.91
2018-12-29T21:37:00.741Z,98934.16
2018-12-29T21:42:06.555Z,98935.69
2018-12-29T21:47:11.928Z,98925.70
2018-12-29T21:52:17.323Z,98909.55
2018-12-29T21:57:22.518Z,98910.22
2018-12-29T22:02:27.807Z,98915.14
2018-12-29T22:07:32.995Z,98909.13
2018-12-29T22:12:38.289Z,98907.60
2018-12-29T22:17:43.472Z,98907.30
2018-12-29T22:22:48.925Z,98907.09
2018-12-29T22:27:54.582Z,98898.08
2018-12-29T22:33:00.344Z,98886.00
2018-12-29T22:38:05.517Z,98884.02
2018-12-29T22:43:11.913Z,98872.69
2018-12-29T22:48:17.552Z,98871.75
2018-12-29T22:53:25.049Z,98861.09
2018-12-29T22:58:32.068Z,98864.83
2018-12-29T23:03:38.379Z,98845.55
2018-12-29T23:08:43.558Z,98833.64
2018-12-29T23:13:50.397Z,98838.69
2018-12-29T23:18:56.198Z,98845.14
2018-12-29T23:24:02.287Z,98826.98
2018-12-29T23:29:08.496Z,98816.97
2018-12-29T23:34:13.773Z,98812.86
2018-12-29T23:39:20.165Z,98814.20
2018-12-29T23:44:25.721Z,98804.26
2018-12-29T23:49:30.890Z,98807.73
2018-12-29T23:54:36.583Z,98820.70
2018-12-29T23:59:41.764Z,98812.31
